• Join FlightAware (Why Join?)
  • Login
  • US Flag 
11:46AM EST


 

Airport Tracker/Info


-or-


 

Live Flight TrackerFlight Track Log ✈ ASQ5539 ✈ 12-Apr-2013 ✈ KVPS - KATL

Flight Track Log - Related Links

Times and Time Zones

All times are in EDT time to prevent confusion due to time zone crossing. See the ASQ5539 flight status page for this flight to view local times or setup timezone preferences in your user account.

Time Position Orientation Groundspeed Altitude Reporting Facility
EDT Latitude Longitude Course Direction KTS MPH feet Rate Location/Type
08:12PM 30.4686 -86.4017 75° East 234 269 6,300  Level Jacksonville Center
08:13PM 30.5442 -86.3875 North 177 204 9,100 2,580 Climbing Jacksonville Center
08:14PM 30.6283 -86.3711 10° North 244 281 11,500 1,740 Climbing Jacksonville Center
08:15PM 30.7186 -86.3456 14° North 289 333 12,600 1,200 Climbing Jacksonville Center
08:16PM 30.9836 -86.4110 25° Northeast  Level FlightAware Approximate
08:16PM 30.8161 -86.2983 23° Northeast 340 391 14,000  Level Jacksonville Center
08:17PM 30.9175 -86.2486 23° Northeast 372 428 15,500 1,500 Climbing Jacksonville Center
08:18PM 31.0189 -86.1989 23° Northeast 386 444 17,000 1,380 Climbing Jacksonville Center
08:19PM 31.1206 -86.1517 22° Northeast 392 451 18,300 1,200 Climbing Jacksonville Center
08:20PM 31.2283 -86.1019 22° Northeast 399 459 19,500 1,200 Climbing Jacksonville Center
08:22PM 31.3989 -86.0192 22° Northeast 408 470 21,400 1,200 Climbing Atlanta Center
08:23PM 31.5103 -85.9656 22° Northeast 414 476 22,600 1,080 Climbing Atlanta Center
08:24PM 31.6219 -85.9119 22° Northeast 419 482 23,600 780 Climbing Atlanta Center
08:25PM 31.7481 -85.8486 23° Northeast 426 490 24,200 540 Climbing Atlanta Center
08:26PM 31.8719 -85.7922 21° North 447 514 24,700 360 Climbing Atlanta Center
08:27PM 31.9772 -85.7356 25° Northeast 462 532 25,000 -120 Climbing Atlanta Center
08:28PM 32.0906 -85.6814 22° Northeast 450 518 24,500 -540 Descending Atlanta Center
08:29PM 32.1956 -85.6269 24° Northeast 428 493 24,000 -300 Descending Atlanta Center
08:30PM 32.3214 -85.5897 14° North 422 486 24,000  Level Atlanta Center
08:31PM 32.4300 -85.5769 North 401 461 24,000  Level Atlanta Center
08:32PM 32.5450 -85.5642 North 401 461 24,000  Level Atlanta Center
08:33PM 32.6581 -85.5414 10° North 408 470 24,000  Level Atlanta Center
08:34PM 32.7550 -85.4542 37° Northeast 413 475 24,000 -900 Level Atlanta Center
08:35PM 32.8542 -85.3617 38° Northeast 426 490 22,300 -2,100 Descending Atlanta Center
08:36PM 32.9492 -85.2617 41° Northeast 444 511 19,900 -2,400 Descending Atlanta Center
08:37PM 33.0461 -85.1664 39° Northeast 450 518 17,500 -2,340 Descending Atlanta Center
08:38PM 33.1364 -85.0833 38° Northeast 441 507 15,300 -1,320 Descending Atlanta Center
08:39PM 33.2186 -84.9872 44° Northeast 408 470 14,900 -660 Descending Atlanta Center
08:40PM 33.2944 -84.8864 48° Northeast 408 470 14,000 -1,080 Descending Atlanta Center
08:41PM 33.3619 -84.7950 48° Northeast 380 437 12,800 -1,020 Descending Atlanta Center
08:41PM 33.4167 -84.7167 50° Northeast 280 322 12,100 -480 Descending Atlanta TRACON
08:42PM 33.4500 -84.6667 51° Northeast 264 304 12,000 -60 Descending Atlanta TRACON
08:43PM 33.5167 -84.5833 46° Northeast 279 321 12,000 -300 Level Atlanta TRACON
08:44PM 33.5500 -84.5167 59° Northeast 283 326 11,400 -1,380 Descending Atlanta TRACON
08:45PM 33.5500 -84.4333 90° East 268 308 9,400 -2,280 Descending Atlanta TRACON
08:46PM 33.5500 -84.3500 90° East 248 285 6,900 -2,100 Descending Atlanta TRACON
08:47PM 33.5500 -84.2667 90° East 256 295 5,200 -1,440 Descending Atlanta TRACON
08:48PM 33.5500 -84.1833 90° East 223 257 4,100 -960 Descending Atlanta TRACON
08:49PM 33.5833 -84.1667 23° Northeast 181 208 3,300 -540 Descending Atlanta TRACON
08:50PM 33.6167 -84.2167 309° West 163 188 3,000 -180 Descending Atlanta TRACON
08:51PM 33.6167 -84.2667 270° West 168 193 3,000 -180 Level Atlanta TRACON
08:52PM 33.6167 -84.3167 270° West 170 196 2,700 -540 Descending Atlanta TRACON
08:53PM 33.6167 -84.3667 270° West 121 139 2,000 -720 Descending Atlanta TRACON
08:54PM 33.6167 -84.4000 270° West 127 146 1,300 -720 Descending Atlanta TRACON
08:56PM 33.6333 -84.4167 301° West  Level FlightAware Approximate
09:03PM 33.6367 -84.4279 301° West  Level Estimated